createdAt,value
2019-05-26T00:01:26.830Z,71.82
2019-05-26T00:03:55.630Z,72.28
2019-05-26T00:06:25.737Z,72.40
2019-05-26T00:08:54.663Z,71.88
2019-05-26T00:11:23.546Z,72.22
2019-05-26T00:13:52.378Z,72.13
2019-05-26T00:16:21.309Z,72.72
2019-05-26T00:18:50.230Z,72.82
2019-05-26T00:21:19.107Z,72.27
2019-05-26T00:23:47.960Z,71.74
2019-05-26T00:26:16.976Z,71.49
2019-05-26T00:28:48.269Z,71.63
2019-05-26T00:31:17.734Z,72.13
2019-05-26T00:33:46.612Z,72.33
2019-05-26T00:36:16.231Z,72.07
2019-05-26T00:38:45.753Z,72.01
2019-05-26T00:41:15.334Z,72.91
2019-05-26T00:43:44.162Z,73.66
2019-05-26T00:46:13.093Z,74.01
2019-05-26T00:48:41.930Z,74.67
2019-05-26T00:51:11.710Z,74.94
2019-05-26T00:53:40.596Z,74.63
2019-05-26T00:56:09.486Z,74.60
2019-05-26T00:58:38.299Z,73.66
2019-05-26T01:01:07.186Z,73.09
2019-05-26T01:03:36.020Z,73.86
2019-05-26T01:06:04.894Z,73.53
2019-05-26T01:08:33.707Z,73.61
2019-05-26T01:11:02.611Z,73.13
2019-05-26T01:13:31.632Z,73.20
2019-05-26T01:16:01.751Z,73.78
2019-05-26T01:18:30.678Z,73.57
2019-05-26T01:21:00.779Z,74.56
2019-05-26T01:23:29.600Z,73.95
2019-05-26T01:25:58.451Z,73.64
2019-05-26T01:28:30.514Z,74.30
2019-05-26T01:30:59.325Z,74.06
2019-05-26T01:33:28.122Z,74.69
2019-05-26T01:35:58.277Z,74.69
2019-05-26T01:38:27.033Z,75.07
2019-05-26T01:40:55.840Z,73.94
2019-05-26T01:43:24.712Z,74.76
2019-05-26T01:45:53.509Z,74.13
2019-05-26T01:48:22.366Z,73.98
2019-05-26T01:50:51.185Z,75.09
2019-05-26T01:53:19.999Z,74.33
2019-05-26T01:55:48.840Z,74.13
2019-05-26T01:58:17.697Z,74.43
2019-05-26T02:00:46.496Z,74.52
2019-05-26T02:03:15.592Z,74.08
2019-05-26T02:05:44.508Z,75.53
2019-05-26T02:08:15.091Z,76.51
2019-05-26T02:10:43.913Z,76.02
2019-05-26T02:13:14.024Z,76.14
2019-05-26T02:15:42.812Z,77.12
2019-05-26T02:18:11.821Z,77.63
2019-05-26T02:20:40.679Z,77.56
2019-05-26T02:23:09.480Z,77.36
2019-05-26T02:25:38.363Z,76.78
2019-05-26T02:28:07.819Z,77.40
2019-05-26T02:30:36.674Z,77.54
2019-05-26T02:33:05.589Z,76.87
2019-05-26T02:35:34.400Z,76.84
2019-05-26T02:38:03.260Z,76.92
2019-05-26T02:40:32.872Z,77.29
2019-05-26T02:43:01.672Z,77.47
2019-05-26T02:45:31.224Z,77.73
2019-05-26T02:48:00.115Z,77.37
2019-05-26T02:50:28.943Z,77.30
2019-05-26T02:52:58.290Z,76.80
2019-05-26T02:55:27.133Z,76.87
2019-05-26T02:57:56.313Z,77.21
2019-05-26T03:00:34.579Z,76.94
2019-05-26T03:03:03.519Z,76.52
2019-05-26T03:05:32.378Z,76.60
2019-05-26T03:08:01.280Z,78.15
2019-05-26T03:10:30.118Z,77.75
2019-05-26T03:12:58.961Z,77.42
2019-05-26T03:15:28.349Z,77.77
2019-05-26T03:17:57.045Z,77.75
2019-05-26T03:20:25.860Z,78.10
2019-05-26T03:22:54.749Z,77.91
2019-05-26T03:25:23.555Z,77.96
2019-05-26T03:27:52.364Z,77.96
2019-05-26T03:30:21.200Z,77.66
2019-05-26T03:32:50.051Z,77.39
2019-05-26T03:35:19.432Z,77.35
2019-05-26T03:37:49.263Z,77.62
2019-05-26T03:40:18.087Z,77.53
2019-05-26T03:42:46.942Z,77.57
2019-05-26T03:45:22.915Z,77.35
2019-05-26T03:47:51.938Z,77.15
2019-05-26T03:50:20.812Z,77.62
2019-05-26T03:52:49.638Z,76.59
2019-05-26T03:55:18.478Z,76.92
2019-05-26T03:57:47.293Z,76.82
2019-05-26T04:00:16.168Z,76.66
2019-05-26T04:02:45.016Z,76.78
2019-05-26T04:05:13.872Z,76.43
2019-05-26T04:07:42.801Z,76.44
2019-05-26T04:10:11.838Z,76.49
2019-05-26T04:12:40.705Z,76.21
2019-05-26T04:15:10.579Z,76.34
2019-05-26T04:17:40.088Z,75.99
2019-05-26T04:20:10.250Z,75.87
2019-05-26T04:22:39.300Z,75.99
2019-05-26T04:25:08.444Z,75.71
2019-05-26T04:27:38.393Z,75.75
2019-05-26T04:30:08.041Z,75.99
2019-05-26T04:32:38.919Z,75.62
2019-05-26T04:35:08.386Z,75.34
2019-05-26T04:37:37.220Z,76.10
2019-05-26T04:40:24.991Z,75.51
2019-05-26T04:42:34.981Z,75.80
2019-05-26T04:45:03.813Z,75.65
2019-05-26T04:47:33.923Z,75.64
2019-05-26T04:50:02.753Z,75.51
2019-05-26T04:52:31.578Z,75.16
2019-05-26T04:55:08.122Z,75.03
2019-05-26T04:57:37.063Z,75.15
2019-05-26T05:00:06.231Z,75.22
2019-05-26T05:02:35.996Z,75.02
2019-05-26T05:05:05.520Z,74.71
2019-05-26T05:07:34.451Z,74.52
2019-05-26T05:10:03.284Z,73.85
2019-05-26T05:12:32.099Z,73.45
2019-05-26T05:15:00.985Z,72.81
2019-05-26T05:17:30.637Z,71.94
2019-05-26T05:19:59.486Z,70.72
2019-05-26T05:22:28.297Z,70.93
2019-05-26T05:24:58.765Z,70.55
2019-05-26T05:27:27.911Z,69.84
2019-05-26T05:29:57.160Z,69.74
2019-05-26T05:32:25.983Z,69.18
2019-05-26T05:34:55.543Z,68.63
2019-05-26T05:37:25.410Z,67.23
2019-05-26T05:39:54.714Z,67.17
2019-05-26T05:42:23.484Z,65.32
2019-05-26T05:44:53.240Z,62.09
2019-05-26T05:47:22.140Z,61.43
2019-05-26T05:49:50.982Z,61.41
2019-05-26T05:52:19.842Z,61.33
2019-05-26T05:54:48.678Z,61.59
2019-05-26T05:57:18.430Z,61.49
2019-05-26T05:59:48.259Z,60.24
2019-05-26T06:02:17.088Z,60.38
2019-05-26T06:04:45.964Z,58.83
2019-05-26T06:07:15.521Z,58.10
2019-05-26T06:09:44.399Z,58.11
2019-05-26T06:12:13.739Z,57.70
2019-05-26T06:14:42.663Z,57.72
2019-05-26T06:17:14.462Z,57.56
2019-05-26T06:19:43.839Z,57.61
2019-05-26T06:22:14.088Z,58.27
2019-05-26T06:24:43.498Z,58.20
2019-05-26T06:27:12.404Z,57.32
2019-05-26T06:29:55.974Z,57.97
2019-05-26T06:32:13.203Z,58.90
2019-05-26T06:34:42.552Z,58.92
2019-05-26T06:37:12.619Z,58.82
2019-05-26T06:39:41.539Z,58.51
2019-05-26T06:42:12.894Z,58.60
2019-05-26T06:44:52.602Z,58.03
2019-05-26T06:47:09.576Z,58.39
2019-05-26T06:49:38.459Z,58.69
2019-05-26T06:52:07.436Z,58.73
2019-05-26T06:54:36.315Z,58.30
2019-05-26T06:57:05.161Z,57.95
2019-05-26T06:59:34.198Z,57.04
2019-05-26T07:02:03.082Z,56.86
2019-05-26T07:04:32.044Z,57.12
2019-05-26T07:07:00.860Z,56.89
2019-05-26T07:09:29.741Z,56.94
2019-05-26T07:12:00.464Z,56.59
2019-05-26T07:14:28.288Z,55.77
2019-05-26T07:16:57.154Z,54.56
2019-05-26T07:19:25.986Z,54.01
2019-05-26T07:21:55.296Z,54.77
2019-05-26T07:24:24.136Z,55.17
2019-05-26T07:26:52.966Z,55.34
2019-05-26T07:29:21.804Z,54.98
2019-05-26T07:31:50.642Z,54.25
2019-05-26T07:34:20.469Z,54.84
2019-05-26T07:36:49.742Z,54.49
2019-05-26T07:39:18.613Z,54.60
2019-05-26T07:41:48.464Z,54.75
2019-05-26T07:44:17.901Z,54.95
2019-05-26T07:46:46.719Z,54.94
2019-05-26T07:49:15.603Z,54.45
2019-05-26T07:51:44.415Z,54.77
2019-05-26T07:54:24.959Z,54.73
2019-05-26T07:56:43.902Z,54.34
2019-05-26T07:59:12.782Z,54.25
2019-05-26T08:01:41.743Z,53.93
2019-05-26T08:04:11.290Z,53.27
2019-05-26T08:06:40.190Z,53.21
2019-05-26T08:09:09.591Z,52.29
2019-05-26T08:11:38.490Z,52.52
2019-05-26T08:14:08.278Z,52.11
2019-05-26T08:16:37.855Z,51.74
2019-05-26T08:19:06.820Z,52.13
2019-05-26T08:21:35.708Z,51.23
2019-05-26T08:24:05.256Z,51.05
2019-05-26T08:26:34.078Z,50.81
2019-05-26T08:29:02.991Z,50.75
2019-05-26T08:31:31.875Z,50.12
2019-05-26T08:34:00.708Z,50.76
2019-05-26T08:36:31.496Z,50.92
2019-05-26T08:39:00.712Z,49.91
2019-05-26T08:41:29.608Z,49.55
2019-05-26T08:44:00.131Z,49.37
2019-05-26T08:46:29.401Z,48.65
2019-05-26T08:48:58.229Z,48.38
2019-05-26T08:51:27.113Z,49.26
2019-05-26T08:53:56.016Z,48.29
2019-05-26T08:56:24.876Z,49.05
2019-05-26T08:58:53.915Z,49.04
2019-05-26T09:01:22.801Z,48.25
2019-05-26T09:03:52.298Z,47.83
2019-05-26T09:06:22.499Z,47.14
2019-05-26T09:08:52.454Z,46.64
2019-05-26T09:11:21.295Z,45.82
2019-05-26T09:13:50.592Z,45.34
2019-05-26T09:16:20.455Z,43.89
2019-05-26T09:18:49.302Z,43.89
2019-05-26T09:21:18.292Z,43.39
2019-05-26T09:23:47.238Z,43.39
2019-05-26T09:26:16.072Z,43.54
2019-05-26T09:28:45.881Z,42.81
2019-05-26T09:31:15.239Z,42.44
2019-05-26T09:33:45.190Z,43.38
2019-05-26T09:36:14.414Z,43.29
2019-05-26T09:38:43.306Z,43.24
2019-05-26T09:41:12.786Z,42.28
2019-05-26T09:43:41.669Z,42.88
2019-05-26T09:46:11.430Z,42.77
2019-05-26T09:48:41.520Z,42.68
2019-05-26T09:51:10.615Z,42.75
2019-05-26T09:53:39.442Z,43.37
2019-05-26T09:56:08.409Z,42.51
2019-05-26T09:58:37.693Z,42.13
2019-05-26T10:01:06.815Z,41.84
2019-05-26T10:03:35.783Z,42.04
2019-05-26T10:06:04.618Z,41.64
2019-05-26T10:08:33.834Z,40.98
2019-05-26T10:11:02.696Z,41.68
2019-05-26T10:13:32.256Z,41.02
2019-05-26T10:16:01.051Z,41.35
2019-05-26T10:18:29.931Z,40.53
2019-05-26T10:20:58.891Z,41.53
2019-05-26T10:23:28.181Z,40.87
2019-05-26T10:25:58.005Z,40.00
2019-05-26T10:28:26.910Z,39.29
2019-05-26T10:30:59.009Z,40.39
2019-05-26T10:33:28.199Z,40.18
2019-05-26T10:35:57.851Z,40.15
2019-05-26T10:38:26.759Z,39.33
2019-05-26T10:40:55.712Z,38.85
2019-05-26T10:43:24.624Z,38.86
2019-05-26T10:45:53.444Z,38.51
2019-05-26T10:48:22.374Z,38.86
2019-05-26T10:50:51.298Z,39.36
2019-05-26T10:53:21.920Z,39.23
2019-05-26T10:55:52.489Z,38.96
2019-05-26T10:58:21.357Z,39.08
2019-05-26T11:00:50.243Z,38.93
2019-05-26T11:03:19.097Z,38.67
2019-05-26T11:05:47.911Z,38.30
2019-05-26T11:08:19.818Z,39.29
2019-05-26T11:10:48.643Z,40.23
2019-05-26T11:13:17.552Z,40.11
2019-05-26T11:15:46.525Z,39.82
2019-05-26T11:18:15.339Z,40.69
2019-05-26T11:20:44.682Z,41.17
2019-05-26T11:23:14.924Z,40.72
2019-05-26T11:25:43.890Z,40.91
2019-05-26T11:28:12.703Z,40.99
2019-05-26T11:30:41.638Z,41.48
2019-05-26T11:33:10.510Z,42.14
2019-05-26T11:35:39.445Z,41.51
2019-05-26T11:38:08.457Z,41.47
2019-05-26T11:40:38.335Z,42.10
2019-05-26T11:43:16.146Z,42.61
2019-05-26T11:45:37.087Z,42.87
2019-05-26T11:48:07.130Z,43.31
2019-05-26T11:50:35.954Z,42.34
2019-05-26T11:53:07.976Z,42.13
2019-05-26T11:55:36.772Z,42.67
2019-05-26T11:58:06.716Z,42.89
2019-05-26T12:00:35.583Z,43.03
2019-05-26T12:03:07.207Z,43.10
2019-05-26T12:05:37.239Z,42.30
2019-05-26T12:08:06.213Z,42.63
2019-05-26T12:10:35.107Z,42.79
2019-05-26T12:13:03.933Z,42.47
2019-05-26T12:15:32.782Z,42.83
2019-05-26T12:18:02.282Z,43.54
2019-05-26T12:20:31.112Z,43.73
2019-05-26T12:23:00.064Z,42.55
2019-05-26T12:25:28.927Z,42.31
2019-05-26T12:27:59.148Z,42.54
2019-05-26T12:30:28.051Z,43.13
2019-05-26T12:32:56.925Z,42.35
2019-05-26T12:35:31.440Z,42.85
2019-05-26T12:38:00.980Z,42.93
2019-05-26T12:40:29.866Z,42.58
2019-05-26T12:42:58.765Z,41.41
2019-05-26T12:45:30.099Z,41.88
2019-05-26T12:48:02.968Z,41.50
2019-05-26T12:50:32.419Z,42.00
2019-05-26T12:53:01.320Z,41.75
2019-05-26T12:55:30.162Z,41.86
2019-05-26T12:57:58.984Z,41.24
2019-05-26T13:00:27.876Z,40.07
2019-05-26T13:02:56.792Z,40.75
2019-05-26T13:05:25.607Z,40.69
2019-05-26T13:07:54.475Z,39.91
2019-05-26T13:10:23.296Z,40.50
2019-05-26T13:12:54.940Z,41.04
2019-05-26T13:15:23.848Z,40.61
2019-05-26T13:17:52.643Z,40.92
2019-05-26T13:20:22.450Z,41.22
2019-05-26T13:22:52.069Z,41.32
2019-05-26T13:25:20.888Z,41.47
2019-05-26T13:27:51.944Z,41.50
2019-05-26T13:30:20.776Z,42.21
2019-05-26T13:32:49.609Z,42.11
2019-05-26T13:35:18.874Z,42.43
2019-05-26T13:37:48.440Z,42.90
2019-05-26T13:40:18.461Z,43.39
2019-05-26T13:42:47.290Z,42.98
2019-05-26T13:45:22.301Z,43.80
2019-05-26T13:47:45.052Z,42.65
2019-05-26T13:50:13.895Z,43.56
2019-05-26T13:52:42.703Z,43.74
2019-05-26T13:55:12.308Z,43.56
2019-05-26T13:57:41.156Z,43.19
2019-05-26T14:00:10.853Z,44.15
2019-05-26T14:02:40.308Z,43.42
2019-05-26T14:05:12.334Z,43.67
2019-05-26T14:07:42.039Z,42.49
2019-05-26T14:10:10.931Z,41.83
2019-05-26T14:12:39.829Z,41.90
2019-05-26T14:15:08.607Z,41.17
2019-05-26T14:17:38.642Z,40.33
2019-05-26T14:20:08.622Z,41.16
2019-05-26T14:22:37.477Z,41.03
2019-05-26T14:25:06.698Z,40.24
2019-05-26T14:27:35.590Z,40.11
2019-05-26T14:30:05.456Z,40.50
2019-05-26T14:32:34.308Z,40.74
2019-05-26T14:35:03.187Z,40.89
2019-05-26T14:37:32.154Z,40.49
2019-05-26T14:40:00.880Z,41.29
2019-05-26T14:42:29.704Z,40.67
2019-05-26T14:45:05.757Z,40.46
2019-05-26T14:47:35.203Z,39.87
2019-05-26T14:50:04.112Z,39.53
2019-05-26T14:52:33.063Z,40.30
2019-05-26T14:55:01.878Z,40.27
2019-05-26T14:57:31.103Z,40.07
2019-05-26T14:59:59.602Z,40.04
2019-05-26T15:02:29.603Z,40.54
2019-05-26T15:04:58.393Z,40.46
2019-05-26T15:07:27.221Z,40.07
2019-05-26T15:09:56.142Z,40.63
2019-05-26T15:12:25.593Z,40.84
2019-05-26T15:14:55.175Z,40.46
2019-05-26T15:17:23.972Z,40.40
2019-05-26T15:19:52.816Z,41.17
2019-05-26T15:22:21.741Z,41.07
2019-05-26T15:24:51.862Z,40.88
2019-05-26T15:27:20.724Z,40.29
2019-05-26T15:29:49.542Z,40.52
2019-05-26T15:32:18.955Z,41.00
2019-05-26T15:34:48.501Z,40.95
2019-05-26T15:37:17.318Z,41.55
2019-05-26T15:39:46.152Z,41.70
2019-05-26T15:42:15.146Z,41.59
2019-05-26T15:44:44.842Z,41.44
2019-05-26T15:47:13.722Z,41.55
2019-05-26T15:49:43.504Z,41.43
2019-05-26T15:52:12.327Z,42.24
2019-05-26T15:54:41.262Z,41.72
2019-05-26T15:57:10.722Z,41.69
2019-05-26T15:59:39.541Z,42.31
2019-05-26T16:02:09.737Z,42.10
2019-05-26T16:04:38.633Z,42.24
2019-05-26T16:07:08.312Z,43.18
2019-05-26T16:09:37.136Z,43.49
2019-05-26T16:12:07.104Z,43.13
2019-05-26T16:14:35.922Z,43.90
2019-05-26T16:17:05.099Z,44.19
2019-05-26T16:19:34.329Z,44.80
2019-05-26T16:22:03.997Z,44.86
2019-05-26T16:24:35.567Z,45.00
2019-05-26T16:27:18.283Z,45.02
2019-05-26T16:29:33.589Z,45.04
2019-05-26T16:32:03.306Z,45.21
2019-05-26T16:34:32.153Z,44.74
2019-05-26T16:37:02.284Z,45.12
2019-05-26T16:39:36.848Z,45.49
2019-05-26T16:42:01.063Z,45.75
2019-05-26T16:44:31.307Z,45.49
2019-05-26T16:47:00.148Z,45.44
2019-05-26T16:49:29.037Z,45.28
2019-05-26T16:51:59.041Z,45.35
2019-05-26T16:54:30.068Z,46.14
2019-05-26T16:56:59.229Z,46.25
2019-05-26T16:59:28.066Z,45.98
2019-05-26T17:01:57.743Z,46.26
2019-05-26T17:04:27.027Z,45.56
2019-05-26T17:06:55.948Z,45.70
2019-05-26T17:09:25.674Z,46.36
2019-05-26T17:11:54.499Z,47.02
2019-05-26T17:14:23.316Z,47.33
2019-05-26T17:16:53.484Z,47.26
2019-05-26T17:19:22.544Z,47.57
2019-05-26T17:21:52.195Z,46.90
2019-05-26T17:24:22.799Z,47.74
2019-05-26T17:26:52.548Z,47.69
2019-05-26T17:29:21.844Z,47.93
2019-05-26T17:31:51.444Z,47.35
2019-05-26T17:34:20.262Z,47.48
2019-05-26T17:36:49.159Z,47.56
2019-05-26T17:39:18.742Z,48.37
2019-05-26T17:41:49.052Z,48.33
2019-05-26T17:44:18.388Z,48.65
2019-05-26T17:46:47.172Z,48.75
2019-05-26T17:49:16.229Z,48.65
2019-05-26T17:51:45.054Z,49.30
2019-05-26T17:54:14.025Z,49.20
2019-05-26T17:56:44.227Z,50.00
2019-05-26T17:59:14.266Z,50.02
2019-05-26T18:01:43.595Z,49.55
2019-05-26T18:04:12.405Z,50.29
2019-05-26T18:06:42.252Z,49.93
2019-05-26T18:09:13.019Z,50.57
2019-05-26T18:11:41.942Z,51.01
2019-05-26T18:14:11.690Z,50.33
2019-05-26T18:16:40.564Z,50.12
2019-05-26T18:19:09.796Z,50.95
2019-05-26T18:21:39.249Z,50.88
2019-05-26T18:24:09.657Z,50.13
2019-05-26T18:26:39.121Z,50.45
2019-05-26T18:29:08.604Z,51.46
2019-05-26T18:31:37.477Z,51.14
2019-05-26T18:34:13.505Z,51.61
2019-05-26T18:36:42.439Z,51.65
2019-05-26T18:39:13.186Z,51.26
2019-05-26T18:41:42.802Z,52.00
2019-05-26T18:44:11.746Z,52.40
2019-05-26T18:46:41.580Z,52.27
2019-05-26T18:49:10.468Z,52.61
2019-05-26T18:51:41.390Z,52.26
2019-05-26T18:54:10.327Z,52.90
2019-05-26T18:56:41.021Z,53.12
2019-05-26T18:59:09.825Z,53.30
2019-05-26T19:01:38.651Z,53.18
2019-05-26T19:04:07.548Z,52.79
2019-05-26T19:06:36.397Z,52.80
2019-05-26T19:09:07.861Z,52.59
2019-05-26T19:11:36.754Z,52.64
2019-05-26T19:14:05.882Z,51.97
2019-05-26T19:16:34.885Z,52.56
2019-05-26T19:19:03.911Z,52.26
2019-05-26T19:21:33.136Z,52.19
2019-05-26T19:24:02.191Z,52.87
2019-05-26T19:26:31.004Z,53.06
2019-05-26T19:28:59.958Z,53.20
2019-05-26T19:31:28.796Z,52.93
2019-05-26T19:33:57.788Z,52.89
2019-05-26T19:36:26.657Z,53.22
2019-05-26T19:38:55.613Z,52.75
2019-05-26T19:41:26.671Z,53.08
2019-05-26T19:43:55.646Z,53.33
2019-05-26T19:46:24.507Z,53.87
2019-05-26T19:48:53.331Z,54.00
2019-05-26T19:51:22.212Z,53.59
2019-05-26T19:53:52.054Z,53.76
2019-05-26T19:56:20.944Z,54.16
2019-05-26T19:58:49.836Z,54.41
2019-05-26T20:01:19.510Z,54.46
2019-05-26T20:03:48.295Z,54.23
2019-05-26T20:06:17.191Z,54.70
2019-05-26T20:08:47.449Z,55.00
2019-05-26T20:11:16.298Z,55.46
2019-05-26T20:13:45.246Z,55.57
2019-05-26T20:16:14.114Z,55.01
2019-05-26T20:18:43.001Z,55.25
2019-05-26T20:21:11.832Z,55.41
2019-05-26T20:23:41.340Z,55.54
2019-05-26T20:26:10.326Z,55.67
2019-05-26T20:28:39.157Z,55.66
2019-05-26T20:31:07.980Z,55.72
2019-05-26T20:33:36.862Z,56.39
2019-05-26T20:36:05.676Z,56.48
2019-05-26T20:38:35.275Z,56.42
2019-05-26T20:41:04.760Z,55.94
2019-05-26T20:43:33.568Z,56.59
2019-05-26T20:46:02.530Z,55.92
2019-05-26T20:48:31.338Z,56.51
2019-05-26T20:51:00.332Z,56.38
2019-05-26T20:53:29.299Z,56.74
2019-05-26T20:55:58.184Z,57.38
2019-05-26T20:58:28.294Z,56.64
2019-05-26T21:00:57.168Z,57.48
2019-05-26T21:03:27.350Z,57.27
2019-05-26T21:05:58.384Z,57.71
2019-05-26T21:08:31.618Z,57.99
2019-05-26T21:11:00.694Z,58.25
2019-05-26T21:13:30.126Z,58.15
2019-05-26T21:15:59.094Z,58.69
2019-05-26T21:18:27.882Z,58.85
2019-05-26T21:20:56.737Z,58.94
2019-05-26T21:23:25.547Z,59.37
2019-05-26T21:25:54.726Z,59.39
2019-05-26T21:28:24.260Z,59.39
2019-05-26T21:30:53.054Z,59.16
2019-05-26T21:33:21.927Z,59.44
2019-05-26T21:35:51.959Z,60.32
2019-05-26T21:38:21.697Z,60.10
2019-05-26T21:40:50.510Z,62.00
2019-05-26T21:43:19.341Z,62.76
2019-05-26T21:45:48.385Z,64.18
2019-05-26T21:48:17.184Z,64.73
2019-05-26T21:50:45.979Z,65.70
2019-05-26T21:53:15.322Z,66.01
2019-05-26T21:55:44.234Z,66.60
2019-05-26T21:58:13.026Z,67.11
2019-05-26T22:00:45.014Z,67.74
2019-05-26T22:03:13.817Z,68.63
2019-05-26T22:05:42.613Z,68.55
2019-05-26T22:08:11.501Z,69.05
2019-05-26T22:10:40.413Z,69.23
2019-05-26T22:13:10.180Z,69.60
2019-05-26T22:15:39.567Z,70.23
2019-05-26T22:18:08.364Z,70.59
2019-05-26T22:20:37.153Z,70.10
2019-05-26T22:23:07.259Z,71.23
2019-05-26T22:25:36.046Z,72.15
2019-05-26T22:28:04.981Z,72.38
2019-05-26T22:30:33.790Z,73.46
2019-05-26T22:33:02.582Z,73.27
2019-05-26T22:35:31.484Z,73.97
2019-05-26T22:38:01.041Z,74.22
2019-05-26T22:40:29.887Z,75.06
2019-05-26T22:42:58.993Z,75.07
2019-05-26T22:45:27.767Z,74.96
2019-05-26T22:47:58.017Z,75.88
2019-05-26T22:50:27.671Z,75.53
2019-05-26T22:52:56.507Z,76.53
2019-05-26T22:55:25.341Z,76.49
2019-05-26T22:57:54.754Z,76.26
2019-05-26T23:00:23.615Z,76.92
2019-05-26T23:02:53.152Z,76.92
2019-05-26T23:05:21.931Z,76.90
2019-05-26T23:07:50.747Z,77.00
2019-05-26T23:10:19.626Z,77.40
2019-05-26T23:12:48.425Z,77.05
2019-05-26T23:15:17.228Z,77.63
2019-05-26T23:17:46.128Z,78.23
2019-05-26T23:20:16.210Z,78.23
2019-05-26T23:22:46.155Z,78.35
2019-05-26T23:25:14.992Z,79.01
2019-05-26T23:27:43.803Z,79.15
2019-05-26T23:30:12.698Z,78.92
2019-05-26T23:32:41.480Z,79.13
2019-05-26T23:35:10.304Z,79.03
2019-05-26T23:37:42.827Z,78.98
2019-05-26T23:40:11.678Z,79.76
2019-05-26T23:42:40.498Z,79.86
2019-05-26T23:45:09.442Z,79.75
2019-05-26T23:47:38.312Z,80.33
2019-05-26T23:50:07.140Z,79.68
2019-05-26T23:52:36.735Z,80.14
2019-05-26T23:55:06.384Z,80.43
2019-05-26T23:57:35.179Z,80.36
